createdAt,value
2023-04-19T00:01:13.692Z,9.63
2023-04-19T00:06:16.389Z,12.03
2023-04-19T00:11:18.755Z,7.63
2023-04-19T00:16:21.763Z,12.63
2023-04-19T00:21:24.075Z,13.10
2023-04-19T00:26:26.567Z,7.47
2023-04-19T00:31:29.001Z,13.47
2023-04-19T00:36:32.743Z,9.33
2023-04-19T00:41:35.095Z,8.83
2023-04-19T00:46:40.180Z,8.40
2023-04-19T00:51:42.962Z,8.50
2023-04-19T00:56:46.561Z,8.50
2023-04-19T01:01:49.005Z,8.40
2023-04-19T01:06:51.719Z,7.90
2023-04-19T01:11:54.668Z,9.57
2023-04-19T01:16:57.981Z,12.03
2023-04-19T01:22:03.452Z,8.53
2023-04-19T01:27:09.156Z,9.37
2023-04-19T01:32:13.396Z,10.67
2023-04-19T01:37:15.815Z,10.03
2023-04-19T01:42:18.148Z,9.97
2023-04-19T01:47:20.481Z,8.33
2023-04-19T01:52:24.138Z,11.67
2023-04-19T01:57:26.482Z,8.13
2023-04-19T02:02:29.016Z,11.83
2023-04-19T02:07:31.374Z,12.00
2023-04-19T02:12:34.897Z,12.17
2023-04-19T02:17:39.262Z,9.93
2023-04-19T02:22:41.956Z,6.87
2023-04-19T02:27:46.683Z,11.03
2023-04-19T02:32:49.914Z,10.03
2023-04-19T02:37:52.272Z,9.80
2023-04-19T02:42:54.566Z,9.37
2023-04-19T02:47:57.325Z,6.80
2023-04-19T02:53:03.009Z,9.83
2023-04-19T02:58:06.794Z,9.47
2023-04-19T03:03:15.025Z,12.07
2023-04-19T03:08:17.848Z,12.00
2023-04-19T03:13:21.339Z,11.90
2023-04-19T03:18:23.985Z,8.87
2023-04-19T03:23:28.637Z,12.60
2023-04-19T03:28:34.143Z,12.73
2023-04-19T03:33:55.290Z,7.37
2023-04-19T03:39:04.505Z,16.57
2023-04-19T03:44:06.958Z,13.17
2023-04-19T03:49:09.594Z,11.57
2023-04-19T03:54:13.018Z,6.47
2023-04-19T03:59:15.610Z,9.63
2023-04-19T04:04:19.022Z,16.20
2023-04-19T04:09:21.978Z,14.53
2023-04-19T04:14:24.993Z,12.47
2023-04-19T04:19:27.438Z,11.97
2023-04-19T04:24:33.196Z,13.87
2023-04-19T04:29:53.538Z,11.90
2023-04-19T04:34:59.104Z,9.90
2023-04-19T04:40:11.933Z,10.90
2023-04-19T04:45:14.338Z,9.67
2023-04-19T04:50:19.105Z,11.60
2023-04-19T04:55:23.882Z,12.10
2023-04-19T05:00:26.996Z,16.10
2023-04-19T05:05:34.886Z,11.47
2023-04-19T05:10:37.354Z,14.53
2023-04-19T05:15:40.154Z,9.23
2023-04-19T05:20:44.325Z,11.83
2023-04-19T05:25:53.078Z,14.02
2023-04-19T05:30:58.170Z,10.30
2023-04-19T05:36:05.764Z,11.97
2023-04-19T05:41:08.828Z,11.37
2023-04-19T05:46:11.308Z,11.07
2023-04-19T05:51:14.637Z,8.20
2023-04-19T05:56:37.184Z,10.47
2023-04-19T06:01:39.933Z,7.00
2023-04-19T06:06:42.407Z,8.43
2023-04-19T06:11:50.655Z,7.03
2023-04-19T06:16:53.790Z,10.15
2023-04-19T06:21:56.226Z,6.73
2023-04-19T06:26:58.637Z,7.30
2023-04-19T06:32:01.083Z,29.90
2023-04-19T06:37:04.194Z,7.80
2023-04-19T06:42:06.739Z,11.83
2023-04-19T06:47:09.331Z,9.00
2023-04-19T06:52:14.608Z,8.87
2023-04-19T06:57:17.611Z,12.33
2023-04-19T07:02:20.114Z,11.53
2023-04-19T07:07:22.681Z,8.40
2023-04-19T07:12:25.044Z,5.53
2023-04-19T07:17:27.454Z,8.40
2023-04-19T07:22:29.980Z,6.20
2023-04-19T07:27:32.413Z,9.87
2023-04-19T07:32:34.940Z,7.60
2023-04-19T07:37:40.686Z,5.73
2023-04-19T07:42:43.869Z,9.93
2023-04-19T07:47:46.614Z,5.90
2023-04-19T07:52:48.957Z,8.67
2023-04-19T07:57:51.253Z,8.40
2023-04-19T08:02:53.822Z,10.37
2023-04-19T08:07:57.208Z,7.50
2023-04-19T08:13:05.677Z,6.30
2023-04-19T08:18:08.584Z,7.20
2023-04-19T08:23:21.332Z,10.20
2023-04-19T08:28:25.080Z,4.13
2023-04-19T08:33:29.280Z,6.43
2023-04-19T08:38:31.797Z,22.80
2023-04-19T08:43:36.374Z,5.60
2023-04-19T08:48:38.956Z,4.87
2023-04-19T08:53:41.774Z,6.17
2023-04-19T08:58:58.006Z,5.67
2023-04-19T09:09:34.049Z,9.57
2023-04-19T09:14:57.803Z,5.73
2023-04-19T09:20:06.119Z,6.47
2023-04-19T09:30:24.042Z,4.37
2023-04-19T09:35:48.765Z,10.00
2023-04-19T09:40:51.283Z,5.80
2023-04-19T09:45:53.645Z,5.00
2023-04-19T09:51:05.477Z,9.27
2023-04-19T09:56:13.104Z,5.13
2023-04-19T10:01:17.126Z,7.40
2023-04-19T10:11:27.746Z,10.53
2023-04-19T10:16:31.573Z,6.07
2023-04-19T10:21:34.740Z,6.53
2023-04-19T10:27:03.397Z,5.93
2023-04-19T10:32:14.193Z,7.90
2023-04-19T10:37:16.746Z,5.73
2023-04-19T10:42:19.387Z,4.70
2023-04-19T10:47:46.735Z,6.03
2023-04-19T10:52:49.194Z,6.47
2023-04-19T10:58:07.531Z,10.73
2023-04-19T11:03:44.353Z,7.63
2023-04-19T11:08:47.490Z,5.23
2023-04-19T11:13:49.952Z,7.40
2023-04-19T11:18:52.206Z,6.27
2023-04-19T11:24:10.313Z,6.30
2023-04-19T11:29:13.185Z,7.60
2023-04-19T11:34:15.949Z,6.80
2023-04-19T11:39:19.144Z,7.23
2023-04-19T11:44:21.926Z,6.83
2023-04-19T11:49:32.014Z,4.70
2023-04-19T11:54:34.466Z,5.80
2023-04-19T11:59:37.318Z,9.10
2023-04-19T12:04:40.470Z,5.97
2023-04-19T12:09:42.873Z,5.60
2023-04-19T12:14:53.121Z,8.60
2023-04-19T12:19:55.559Z,5.70
2023-04-19T12:24:58.014Z,5.93
2023-04-19T12:30:03.373Z,4.57
2023-04-19T12:35:07.477Z,7.20
2023-04-19T12:40:10.548Z,4.30
2023-04-19T12:45:13.850Z,10.77
2023-04-19T12:50:16.704Z,15.33
2023-04-19T12:55:19.145Z,8.60
2023-04-19T13:00:22.550Z,6.60
2023-04-19T13:05:25.140Z,3.30
2023-04-19T13:10:27.642Z,5.87
2023-04-19T13:15:30.164Z,6.83
2023-04-19T13:20:32.534Z,4.33
2023-04-19T13:25:34.866Z,7.73
2023-04-19T13:30:37.192Z,6.93
2023-04-19T13:35:39.640Z,4.47
2023-04-19T13:40:41.968Z,5.70
2023-04-19T13:45:44.254Z,6.57
2023-04-19T13:50:46.593Z,7.77
2023-04-19T13:55:49.264Z,5.83
2023-04-19T14:00:52.577Z,4.57
2023-04-19T14:05:55.261Z,4.03
2023-04-19T14:10:57.615Z,6.50
2023-04-19T14:16:00.081Z,7.73
2023-04-19T14:21:02.513Z,4.40
2023-04-19T14:26:04.885Z,6.57
2023-04-19T14:31:07.307Z,6.03
2023-04-19T14:36:09.787Z,6.70
2023-04-19T14:41:12.276Z,10.63
2023-04-19T14:46:14.627Z,4.47
2023-04-19T14:51:17.071Z,4.77
2023-04-19T14:56:19.493Z,7.03
2023-04-19T15:01:23.627Z,4.07
2023-04-19T15:06:26.061Z,6.60
2023-04-19T15:11:28.406Z,5.93
2023-04-19T15:16:31.000Z,4.40
2023-04-19T15:21:33.497Z,6.77
2023-04-19T15:26:36.311Z,7.23
2023-04-19T15:31:38.996Z,6.50
2023-04-19T15:36:41.666Z,6.77
2023-04-19T15:41:44.035Z,4.63
2023-04-19T15:46:46.615Z,6.97
2023-04-19T15:51:49.037Z,7.77
2023-04-19T15:56:51.490Z,4.13
2023-04-19T16:01:53.888Z,5.47
2023-04-19T16:06:56.436Z,7.40
2023-04-19T16:11:58.846Z,10.87
2023-04-19T16:17:01.508Z,6.30
2023-04-19T16:22:05.757Z,6.50
2023-04-19T16:27:08.131Z,5.17
2023-04-19T16:32:11.125Z,6.63
2023-04-19T16:37:16.333Z,8.70
2023-04-19T16:42:18.750Z,6.47
2023-04-19T16:47:22.228Z,7.00
2023-04-19T16:52:29.501Z,25.70
2023-04-19T16:57:32.244Z,16.73
2023-04-19T17:02:34.861Z,20.57
2023-04-19T17:07:37.407Z,18.10
2023-04-19T17:12:39.942Z,15.20
2023-04-19T17:17:43.166Z,25.90
2023-04-19T17:22:45.664Z,19.47
2023-04-19T17:27:48.134Z,42.57
2023-04-19T17:32:51.511Z,22.67
2023-04-19T17:37:53.996Z,21.70
2023-04-19T17:42:56.450Z,19.40
2023-04-19T17:47:58.839Z,25.17
2023-04-19T17:53:01.394Z,29.47
2023-04-19T17:58:03.893Z,24.40
2023-04-19T18:03:07.452Z,25.90
2023-04-19T18:08:10.295Z,32.17
2023-04-19T18:13:12.817Z,37.30
2023-04-19T18:18:15.335Z,42.90
2023-04-19T18:23:17.813Z,34.40
2023-04-19T18:28:20.221Z,33.37
2023-04-19T18:33:22.769Z,35.53
2023-04-19T18:38:25.433Z,30.03
2023-04-19T18:43:31.757Z,25.90
2023-04-19T18:48:34.175Z,34.97
2023-04-19T18:53:36.755Z,48.67
2023-04-19T18:58:39.089Z,45.73
2023-04-19T19:04:07.727Z,56.13
2023-04-19T19:09:04.312Z,50.83
2023-04-19T19:14:06.651Z,52.33
2023-04-19T19:19:09.366Z,52.90
2023-04-19T19:24:11.893Z,61.33
2023-04-19T19:29:16.313Z,73.17
2023-04-19T19:34:27.172Z,87.40
2023-04-19T19:39:32.801Z,76.13
2023-04-19T19:44:35.229Z,77.03
2023-04-19T19:54:43.072Z,81.80
2023-04-19T19:59:51.724Z,69.13
2023-04-19T20:04:57.715Z,54.20
2023-04-19T20:10:00.340Z,64.10
2023-04-19T20:15:03.471Z,57.37
2023-04-19T20:20:11.712Z,66.70
2023-04-19T20:25:14.194Z,58.80
2023-04-19T20:30:16.655Z,69.10
2023-04-19T20:35:19.208Z,63.37
2023-04-19T20:40:23.305Z,54.23
2023-04-19T20:45:26.231Z,41.27
2023-04-19T20:50:30.610Z,41.17
2023-04-19T20:55:32.930Z,34.47
2023-04-19T21:00:35.317Z,43.93
2023-04-19T21:05:37.667Z,47.63
2023-04-19T21:10:39.998Z,39.03
2023-04-19T21:15:42.395Z,43.00
2023-04-19T21:20:45.002Z,36.80
2023-04-19T21:25:47.310Z,37.53
2023-04-19T21:30:49.706Z,25.40
2023-04-19T21:35:52.104Z,30.73
2023-04-19T21:40:54.507Z,19.30
2023-04-19T21:45:56.856Z,15.03
2023-04-19T21:50:59.183Z,17.17
2023-04-19T21:56:03.160Z,20.17
2023-04-19T22:01:05.534Z,13.00
2023-04-19T22:06:08.846Z,11.83
2023-04-19T22:11:12.302Z,15.63
2023-04-19T22:16:15.330Z,11.33
2023-04-19T22:21:17.625Z,12.07
2023-04-19T22:26:21.468Z,12.63
2023-04-19T22:31:23.801Z,21.93
2023-04-19T22:36:26.599Z,15.20
2023-04-19T22:41:29.139Z,14.43
2023-04-19T22:46:31.505Z,12.20
2023-04-19T22:51:36.999Z,12.90
2023-04-19T22:56:39.774Z,9.00
2023-04-19T23:01:43.411Z,12.73
2023-04-19T23:06:45.894Z,16.57
2023-04-19T23:11:48.171Z,15.87
2023-04-19T23:16:50.515Z,10.63
2023-04-19T23:21:52.801Z,11.23
2023-04-19T23:26:55.126Z,12.70
2023-04-19T23:31:58.168Z,8.67
2023-04-19T23:37:00.709Z,14.20
2023-04-19T23:42:03.415Z,10.93
2023-04-19T23:47:05.942Z,10.83
2023-04-19T23:52:08.278Z,11.03
2023-04-19T23:57:10.531Z,14.37
